Data for 08/27/2006

Time Sea-Level Adjusted Pressure Absolute Pressure Temperature Relative Humidity Dew Point   
(mb) (inHg) (mb) (inHg) (C) (F) (%) (C) (F)
00:05 1020 30.12 850 25.1 14.8 58.6 60 7.2 45
00:10 1020 30.12 850 25.1 14.7 58.4 63 7.7 45.8
00:15 1021 30.15 850 25.1 14.7 58.5 60 7.2 44.9
00:20 1021 30.15 850 25.1 14.9 58.8 58 6.8 44.2
00:25 1021 30.15 850 25.1 15 59.1 63 8 46.5
00:30 1021 30.15 850 25.1 14.9 58.7 59 7.1 44.7
00:35 1021 30.15 850 25.1 14.6 58.2 60 6.9 44.4
00:40 1021 30.15 850 25.1 14.7 58.4 58 6.6 43.9
00:45 1021 30.15 850 25.1 14.5 58 59 6.7 44.1
00:50 1021 30.15 850 25.1 14.9 58.8 57 6.7 44
00:55 1021 30.15 850 25.1 14.8 58.7 58 6.6 43.9
01:00 1021 30.15 850 25.1 14.7 58.5 58 6.7 44.1
01:05 1021 30.15 850 25.1 14.5 58 59 6.6 43.9
01:10 1021 30.15 850 25.1 14.3 57.7 60 6.8 44.2
01:15 1021 30.15 850 25.1 14.3 57.8 59 6.6 43.9
01:20 1021 30.15 850 25.1 14.2 57.5 61 6.7 44.1
01:25 1021 30.15 850 25.1 14.3 57.8 58 6.4 43.4
01:30 1021 30.15 850 25.1 14.6 58.2 58 6.6 43.9
01:35 1021 30.15 850 25.1 14.4 58 60 6.8 44.2
01:40 1021 30.15 850 25.1 14.5 58.1 59 6.6 44
01:45 1021 30.15 850 25.1 14.4 57.9 60 6.7 44
01:50 1021 30.15 850 25.1 14.3 57.7 60 6.7 44.1
01:55 1021 30.15 850 25.1 14.1 57.4 61 6.9 44.4
02:00 1021 30.15 850 25.1 13.7 56.7 62 6.7 44.1
02:05 1021 30.15 851 25.13 13.7 56.7 64 7.1 44.7
02:10 1021 30.15 851 25.13 13.6 56.5 63 6.9 44.4
02:15 1021 30.15 851 25.13 13.5 56.3 65 7 44.6
02:20 1021 30.15 851 25.13 13.7 56.6 63 6.8 44.2
02:25 1021 30.15 851 25.13 13.7 56.6 62 6.6 43.9
02:30 1021 30.15 851 25.13 13.7 56.7 67 7.8 46.1
02:35 1021 30.15 851 25.13 13.9 56.9 61 6.5 43.7
02:40 1021 30.15 851 25.13 13.8 56.8 61 6.4 43.5
02:45 1021 30.15 851 25.13 13.8 56.8 63 6.8 44.3
02:50 1021 30.15 851 25.13 13.8 56.8 62 6.6 43.9
02:55 1021 30.15 851 25.13 13.3 56 65 6.9 44.4
03:00 1021 30.15 851 25.13 12.9 55.2 66 6.8 44.2
03:05 1021 30.15 851 25.13 12.5 54.6 68 6.9 44.5
03:10 1021 30.15 851 25.13 12.1 53.8 69 6.7 44
03:15 1021 30.15 851 25.13 12.1 53.7 69 6.6 43.9
03:20 1021 30.15 851 25.13 11.9 53.3 70 6.6 43.9
03:25 1021 30.15 851 25.13 11.7 53.1 70 6.6 43.8
03:30 1021 30.15 851 25.13 11.8 53.3 69 6.4 43.5
03:35 1022 30.18 851 25.13 11.8 53.2 69 6.3 43.3
03:40 1022 30.18 851 25.13 12.1 53.7 68 6.4 43.6
03:45 1022 30.18 851 25.13 11.9 53.5 69 6.4 43.5
03:50 1022 30.18 851 25.13 11.9 53.3 69 6.3 43.4
03:55 1022 30.18 851 25.13 12.1 53.7 68 6.4 43.6
04:00 1022 30.18 851 25.13 12.2 53.9 67 6.4 43.5
04:05 1022 30.18 851 25.13 12.2 54 68 6.4 43.6
04:10 1022 30.18 851 25.13 12.1 53.7 69 6.6 43.9
04:15 1022 30.18 851 25.13 11.8 53.3 69 6.4 43.6
04:20 1022 30.18 851 25.13 11.8 53.2 69 6.4 43.5
04:25 1022 30.18 851 25.13 11.9 53.5 69 6.4 43.5
04:30 1022 30.18 851 25.13 12.1 53.8 68 6.4 43.4
04:35 1022 30.18 851 25.13 12.4 54.2 67 6.4 43.5
04:40 1022 30.18 851 25.13 12.3 54.1 67 6.5 43.6
04:45 1022 30.18 851 25.13 12.1 53.8 68 6.4 43.6
04:50 1022 30.18 851 25.13 12.1 53.7 68 6.4 43.5
04:55 1022 30.18 851 25.13 11.9 53.3 69 6.5 43.6
05:00 1022 30.18 851 25.13 11.5 52.6 71 6.4 43.6
05:05 1022 30.18 851 25.13 11.3 52.3 71 6.4 43.4
05:10 1022 30.18 851 25.13 11.4 52.6 71 6.3 43.4
05:15 1022 30.18 851 25.13 11.4 52.5 71 6.4 43.5
05:20 1022 30.18 851 25.13 11.3 52.4 71 6.2 43.2
05:25 1022 30.18 851 25.13 11.6 52.9 69 6.2 43.2
05:30 1022 30.18 851 25.13 11.6 53 69 6.2 43.2
05:35 1022 30.18 851 25.13 11.8 53.3 68 6.1 43.1
05:40 1022 30.18 851 25.13 12 53.6 67 6.2 43.2
05:45 1022 30.18 851 25.13 12.1 53.8 68 6.3 43.4
05:50 1022 30.18 851 25.13 12.1 53.7 67 6.3 43.3
05:55 1022 30.18 851 25.13 12 53.5 67 6.2 43.1
06:00 1022 30.18 851 25.13 12 53.6 68 6.3 43.3
06:05 1022 30.18 851 25.13 11.9 53.5 67 6.1 43
06:10 1022 30.18 851 25.13 11.9 53.4 68 6.3 43.4
06:15 1022 30.18 851 25.13 11.6 52.9 69 6.2 43.1
06:20 1022 30.18 851 25.13 11.6 52.8 70 6.3 43.3
06:25 1022 30.18 851 25.13 11.6 52.8 70 6.2 43.2
06:30 1022 30.18 851 25.13 11.5 52.7 70 6.3 43.3
06:35 1022 30.18 851 25.13 11.5 52.7 70 6.2 43.2
06:40 1022 30.18 851 25.13 11.3 52.3 71 6.3 43.3
06:45 1022 30.18 851 25.13 11.3 52.3 70 6.1 42.9
06:50 1022 30.18 851 25.13 11.4 52.6 70 6.2 43.1
06:55 1022 30.18 852 25.16 11.4 52.4 70 6.2 43.1
07:00 1022 30.18 852 25.16 11.3 52.3 71 6.1 43
07:05 1022 30.18 852 25.16 11.2 52.1 71 6.1 42.9
07:10 1022 30.18 852 25.16 11.4 52.5 69 6 42.9
07:15 1023 30.21 852 25.16 11.5 52.6 70 6.1 43
07:20 1023 30.21 852 25.16 11.5 52.8 69 6.2 43.1
07:25 1023 30.21 852 25.16 11.6 52.9 69 6.2 43.2
07:30 1023 30.21 852 25.16 11.7 53.1 69 6.3 43.3
07:35 1023 30.21 852 25.16 11.9 53.3 68 6.3 43.3
07:40 1023 30.21 852 25.16 12 53.7 68 6.3 43.4
07:45 1023 30.21 852 25.16 12.3 54.1 67 6.4 43.6
07:50 1023 30.21 852 25.16 12.5 54.5 67 6.6 43.8
07:55 1023 30.21 852 25.16 12.7 54.9 66 6.5 43.8
08:00 1023 30.21 852 25.16 12.9 55.2 65 6.6 43.8
08:05 1023 30.21 852 25.16 13.2 55.8 64 6.7 44
08:10 1023 30.21 852 25.16 13.4 56.1 63 6.5 43.8
08:15 1023 30.21 852 25.16 13.5 56.4 63 6.8 44.2
08:20 1023 30.21 852 25.16 13.9 57.1 61 6.6 43.8
08:25 1023 30.21 852 25.16 14.3 57.7 60 6.7 44
08:30 1023 30.21 852 25.16 14.7 58.4 60 7 44.7
08:35 1023 30.21 852 25.16 15.2 59.4 57 6.9 44.4
08:40 1023 30.21 853 25.19 15.4 59.7 58 7.1 44.9
08:45 1023 30.21 853 25.19 15.8 60.4 55 6.9 44.4
08:50 1023 30.21 853 25.19 16.5 61.8 52 6.8 44.2
08:55 1023 30.21 853 25.19 17.1 62.7 52 7.2 45
09:00 1023 30.21 853 25.19 17.2 63 51 7.2 45
09:05 1023 30.21 853 25.19 18 64.3 51 7.8 46.1
09:10 1023 30.21 853 25.19 18 64.4 48 6.9 44.4
09:15 1023 30.21 853 25.19 18.5 65.2 47 7.2 44.9
09:20 1023 30.21 853 25.19 18.6 65.4 48 7.5 45.4
09:25 1023 30.21 853 25.19 18.6 65.4 46 6.7 44.1
09:30 1023 30.21 853 25.19 19.2 66.5 45 7 44.6
09:35 1023 30.21 853 25.19 19.4 66.9 45 7.2 44.9
09:40 1023 30.21 853 25.19 19.7 67.4 44 7.3 45.1
09:45 1023 30.21 853 25.19 19.9 67.8 43 7.1 44.7
09:50 1023 30.21 853 25.19 19.6 67.3 44 7 44.6
09:55 1023 30.21 853 25.19 20.1 68.2 42 6.8 44.2
10:00 1024 30.24 853 25.19 20.1 68.3 42 7.1 44.7
10:05 1024 30.24 853 25.19 20.3 68.5 40 6.5 43.7
10:10 1024 30.24 853 25.19 20.4 68.6 40 6.5 43.8
10:15 1024 30.24 853 25.19 20.7 69.3 39 6.4 43.6
10:20 1024 30.24 853 25.19 20.8 69.4 41 7.2 44.9
10:25 1024 30.24 853 25.19 20.5 68.9 40 6.6 43.8
10:30 1024 30.24 853 25.19 20.4 68.8 42 7.2 45
10:35 1024 30.24 853 25.19 20.7 69.3 39 6.5 43.7
10:40 1024 30.24 853 25.19 21.3 70.3 37 6.3 43.4
10:45 1024 30.24 853 25.19 21.4 70.5 35 5.6 42
10:50 1024 30.24 853 25.19 21.8 71.2 35 5.8 42.5
10:55 1024 30.24 853 25.19 22.2 71.9 33 5.5 41.9
11:00 1024 30.24 853 25.19 22 71.5 34 5.7 42.2
11:05 1024 30.24 853 25.19 22 71.6 32 5 41
11:10 1024 30.24 853 25.19 22 71.7 34 5.5 41.9
11:15 1024 30.24 853 25.19 22.1 71.9 33 5.4 41.8
11:20 1024 30.24 853 25.19 22 71.7 35 5.9 42.7
11:25 1024 30.24 853 25.19 22.1 71.7 34 5.6 42.1
11:30 1024 30.24 853 25.19 22.5 72.5 31 4.7 40.5
11:35 1024 30.24 853 25.19 22.7 72.9 32 5.2 41.4
11:40 1024 30.24 853 25.19 22.9 73.2 31 5 41
11:45 1024 30.24 853 25.19 23.1 73.6 31 5.4 41.7
11:50 1024 30.24 853 25.19 23.2 73.7 30 4.8 40.7
11:55 1024 30.24 853 25.19 22.7 72.9 30 4.4 39.9
12:00 1024 30.24 853 25.19 23.1 73.6 29 4.2 39.6
12:05 1024 30.24 853 25.19 23.3 73.9 29 4.2 39.6
12:10 1024 30.24 853 25.19 23.7 74.7 29 4.9 40.8
12:15 1024 30.24 853 25.19 23.4 74 28 4.1 39.4
12:20 1024 30.24 853 25.19 23.8 74.8 26 3.5 38.4
12:25 1024 30.24 853 25.19 24.1 75.4 26 3.6 38.5
12:30 1024 30.24 853 25.19 24.2 75.5 25 3.4 38.1
12:35 1024 30.24 853 25.19 24.5 76.1 25 3.2 37.8
12:40 1023 30.21 853 25.19 24.5 76.1 25 3.5 38.3
12:45 1023 30.21 853 25.19 24.1 75.4 27 4 39.2
12:50 1023 30.21 853 25.19 24.9 76.8 24 3.2 37.7
12:55 1023 30.21 853 25.19 24.9 76.7 25 4 39.1
13:00 1023 30.21 853 25.19 24.3 75.7 24 2.7 36.9
13:05 1023 30.21 853 25.19 24.7 76.5 24 3 37.4
13:10 1023 30.21 852 25.16 24.9 76.9 25 3.9 39.1
13:15 1023 30.21 852 25.16 25.1 77.1 23 3 37.4
13:20 1023 30.21 852 25.16 24.3 75.8 25 3.1 37.6
13:25 1023 30.21 852 25.16 24.4 76 24 3 37.3
13:30 1023 30.21 852 25.16 24.8 76.6 23 2.4 36.3
13:35 1023 30.21 852 25.16 25.2 77.3 21 1.8 35.3
13:40 1023 30.21 852 25.16 25.3 77.5 23 2.7 36.8
13:45 1023 30.21 852 25.16 24.3 75.7 23 2.2 36
13:50 1023 30.21 852 25.16 25.1 77.2 21 1.8 35.3
13:55 1023 30.21 852 25.16 25.5 77.8 23 3 37.5
14:00 1023 30.21 852 25.16 25.3 77.5 22 2.6 36.6
14:05 1023 30.21 852 25.16 24.8 76.6 24 3.1 37.6
14:10 1023 30.21 852 25.16 25 77 23 2.5 36.6
14:15 1023 30.21 852 25.16 25.6 78 20 1.5 34.6
14:20 1023 30.21 852 25.16 25.9 78.5 22 2.7 36.9
14:25 1023 30.21 852 25.16 25.5 77.8 23 3.2 37.7
14:30 1023 30.21 852 25.16 25.9 78.6 22 2.6 36.6
14:35 1023 30.21 852 25.16 26.1 79 21 2.4 36.3
14:40 1023 30.21 852 25.16 26.4 79.5 20 1.8 35.2
14:45 1023 30.21 852 25.16 25.7 78.2 21 2.1 35.9
14:50 1023 30.21 852 25.16 25.7 78.2 22 2.4 36.4
14:55 1023 30.21 852 25.16 25.5 77.8 22 2.7 36.9
15:00 1023 30.21 852 25.16 25.3 77.5 22 2.2 36
15:05 1023 30.21 852 25.16 24.8 76.6 22 2.2 35.9
15:10 1023 30.21 852 25.16 25.3 77.6 21 2 35.6
15:15 1023 30.21 852 25.16 25.9 78.7 20 1.2 34.1
15:20 1023 30.21 852 25.16 26 78.9 20 1.7 35.1
15:25 1023 30.21 852 25.16 26.1 79 19 0.7 33.3
15:30 1023 30.21 852 25.16 25.9 78.6 20 1.5 34.7
15:35 1022 30.18 852 25.16 26.2 79.2 20 1.7 35.1
15:40 1022 30.18 852 25.16 26.1 79 21 2.3 36.1
15:45 1022 30.18 852 25.16 25.9 78.7 21 2.4 36.4
15:50 1022 30.18 852 25.16 26.2 79.2 20 2 35.6
15:55 1022 30.18 852 25.16 26.3 79.3 19 1.2 34.2
16:00 1022 30.18 852 25.16 26 78.9 19 0.8 33.4
16:05 1022 30.18 852 25.16 26.5 79.6 20 1.7 35
16:10 1022 30.18 852 25.16 26.2 79.2 20 1.7 35.1
16:15 1022 30.18 852 25.16 26.7 80 20 2.2 35.9
16:20 1022 30.18 852 25.16 27.3 81.1 19 2.2 35.9
16:25 1022 30.18 852 25.16 27.2 81 20 2.6 36.6
16:30 1022 30.18 852 25.16 26.8 80.3 21 3 37.4
16:35 1022 30.18 852 25.16 26.8 80.2 19 1.6 34.9
16:40 1022 30.18 852 25.16 26.5 79.8 21 2.5 36.6
16:45 1022 30.18 851 25.13 26.5 79.6 21 2.9 37.1
16:50 1022 30.18 851 25.13 26.4 79.5 21 2.6 36.6
16:55 1022 30.18 851 25.13 26.2 79.1 21 2.3 36.2
17:00 1022 30.18 851 25.13 25.8 78.4 21 2 35.5
17:05 1022 30.18 851 25.13 26.4 79.5 20 1.9 35.3
17:10 1022 30.18 851 25.13 26.1 78.9 20 1.8 35.2
17:15 1022 30.18 851 25.13 26.4 79.6 20 1.7 35.1
17:20 1022 30.18 851 25.13 26.6 80 19 1.6 34.8
17:25 1022 30.18 851 25.13 26.5 79.6 20 2 35.6
17:30 1022 30.18 851 25.13 26.5 79.6 19 0.9 33.7
17:35 1022 30.18 851 25.13 26.4 79.4 19 1 33.8
17:40 1022 30.18 851 25.13 26.5 79.8 19 1.7 35
17:45 1022 30.18 851 25.13 25.7 78.2 21 1.7 35
17:50 1022 30.18 851 25.13 26.2 79.2 19 1.4 34.4
17:55 1022 30.18 851 25.13 26.4 79.5 19 1.2 34.1
18:00 1022 30.18 851 25.13 26.3 79.3 19 1.4 34.6
18:05 1022 30.18 851 25.13 26.7 80 18 0.9 33.6
18:10 1022 30.18 851 25.13 26.7 80.1 19 1.3 34.3
18:15 1022 30.18 851 25.13 26.5 79.7 18 0.4 32.7
18:20 1022 30.18 851 25.13 26.5 79.8 18 0.4 32.7
18:25 1022 30.18 851 25.13 26.6 79.9 18 0.6 33
18:30 1022 30.18 851 25.13 26.6 79.8 20 1.7 35.1
18:35 1022 30.18 851 25.13 25.9 78.7 19 1 33.8
18:40 1022 30.18 851 25.13 25.4 77.8 19 0.6 33.1
18:45 1022 30.18 851 25.13 25.4 77.7 19 0.6 33.1
18:50 1022 30.18 851 25.13 25.2 77.4 20 0.8 33.4
18:55 1022 30.18 851 25.13 25.2 77.3 20 0.7 33.2
19:00 1022 30.18 851 25.13 25 77 20 0.8 33.5
19:05 1022 30.18 851 25.13 24.8 76.7 20 0.9 33.6
19:10 1022 30.18 851 25.13 24.7 76.4 22 1.5 34.7
19:15 1022 30.18 851 25.13 24.4 76 21 0.9 33.6
19:20 1022 30.18 851 25.13 24.3 75.8 21 0.6 33.1
19:25 1022 30.18 851 25.13 24.4 75.9 21 0.9 33.7
19:30 1022 30.18 851 25.13 24.4 76 21 1.1 33.9
19:35 1022 30.18 851 25.13 24.5 76 23 2.3 36.1
19:40 1022 30.18 851 25.13 24.4 75.9 22 1.6 34.9
19:45 1022 30.18 851 25.13 24.3 75.7 23 2 35.5
19:50 1022 30.18 851 25.13 24 75.1 24 2.2 35.9
19:55 1022 30.18 851 25.13 23.6 74.4 25 2.7 36.9
20:00 1022 30.18 851 25.13 22.8 73 29 4.3 39.7
20:05 1022 30.18 851 25.13 22 71.6 31 4.1 39.5
20:10 1022 30.18 851 25.13 21.6 70.9 30 3.4 38.1
20:15 1022 30.18 851 25.13 21.6 71 29 3.2 37.8
20:20 1022 30.18 851 25.13 21.6 70.8 30 3.2 37.8
20:25 1022 30.18 851 25.13 21.5 70.6 29 3.1 37.6
20:30 1022 30.18 851 25.13 21.5 70.7 30 3.2 37.8
20:35 1022 30.18 851 25.13 21.4 70.6 30 3.3 38
20:40 1022 30.18 852 25.16 21.2 70.2 31 3.4 38.1
20:45 1022 30.18 852 25.16 21 69.7 31 3.5 38.3
20:50 1023 30.21 852 25.16 20.8 69.4 31 3.3 38
20:55 1023 30.21 852 25.16 20.7 69.3 32 3.4 38.2
21:00 1023 30.21 852 25.16 20.7 69.2 32 3.5 38.3
21:05 1023 30.21 852 25.16 20.5 68.8 32 3.5 38.3
21:10 1023 30.21 852 25.16 20.4 68.8 32 3.5 38.3
21:15 1023 30.21 852 25.16 20.3 68.6 33 3.5 38.4
21:20 1023 30.21 852 25.16 20.2 68.4 33 3.5 38.3
21:25 1023 30.21 852 25.16 20.2 68.4 33 3.5 38.3
21:30 1023 30.21 852 25.16 20.2 68.4 33 3.6 38.5
21:35 1023 30.21 852 25.16 20.2 68.4 33 3.6 38.5
21:40 1023 30.21 852 25.16 20.1 68.3 33 3.6 38.5
21:45 1023 30.21 852 25.16 20.2 68.4 33 3.6 38.4
21:50 1023 30.21 852 25.16 20.1 68.3 33 3.7 38.7
21:55 1023 30.21 852 25.16 20 68 33 3.5 38.4
22:00 1023 30.21 852 25.16 20 68 34 3.6 38.5
22:05 1023 30.21 852 25.16 20 67.9 34 3.6 38.5
22:10 1023 30.21 852 25.16 20 68 34 3.7 38.6
22:15 1023 30.21 852 25.16 20 68.1 33 3.6 38.4
22:20 1023 30.21 852 25.16 20 68 34 3.7 38.7
22:25 1023 30.21 852 25.16 20 68 34 3.7 38.6
22:30 1023 30.21 852 25.16 20 67.9 34 3.7 38.7
22:35 1023 30.21 852 25.16 19.9 67.8 34 3.7 38.7
22:40 1023 30.21 852 25.16 19.8 67.6 34 3.7 38.7
22:45 1023 30.21 852 25.16 19.8 67.6 34 3.7 38.6
22:50 1023 30.21 852 25.16 19.8 67.7 34 3.8 38.9
22:55 1023 30.21 852 25.16 19.7 67.4 35 3.8 38.8
23:00 1023 30.21 852 25.16 19.5 67.1 35 3.8 38.9
23:05 1023 30.21 852 25.16 19.4 66.9 35 3.7 38.7
23:10 1023 30.21 852 25.16 19.3 66.7 35 3.7 38.6
23:15 1023 30.21 852 25.16 19 66.3 36 3.8 38.8
23:20 1023 30.21 852 25.16 18.9 66.1 37 4 39.1
23:25 1023 30.21 852 25.16 18.7 65.7 37 4.1 39.3
23:30 1023 30.21 852 25.16 18.4 65.1 39 4.2 39.5
23:35 1023 30.21 852 25.16 18 64.3 40 4.2 39.5
23:40 1023 30.21 852 25.16 17.8 64 40 4.1 39.3
23:45 1023 30.21 852 25.16 17.6 63.8 40 4.1 39.3
23:50 1023 30.21 852 25.16 17.5 63.5 41 4.1 39.5
23:55 1023 30.21 852 25.16 17.4 63.3 41 4.1 39.4
24:00 1023 30.21 852 25.16 17.4 63.2 41 3.9 39.1